sensor_id;sensor_type;location;lat;lon;timestamp;temperature;humidity
7427;DHT22;3755;59.316;18.092;2023-02-08T00:01:24;2.80;99.90
7427;DHT22;3755;59.316;18.092;2023-02-08T00:03:51;2.90;99.90
7427;DHT22;3755;59.316;18.092;2023-02-08T00:06:21;2.90;99.90
7427;DHT22;3755;59.316;18.092;2023-02-08T00:08:49;2.90;99.90
7427;DHT22;3755;59.316;18.092;2023-02-08T00:11:17;2.90;99.90
7427;DHT22;3755;59.316;18.092;2023-02-08T00:13:45;2.90;99.90
7427;DHT22;3755;59.316;18.092;2023-02-08T00:16:13;2.90;99.90
7427;DHT22;3755;59.316;18.092;2023-02-08T00:18:40;2.90;99.90
7427;DHT22;3755;59.316;18.092;2023-02-08T00:21:09;2.90;99.90
7427;DHT22;3755;59.316;18.092;2023-02-08T00:23:38;2.90;99.90
7427;DHT22;3755;59.316;18.092;2023-02-08T00:26:06;2.90;99.90
7427;DHT22;3755;59.316;18.092;2023-02-08T00:28:33;2.90;99.90
7427;DHT22;3755;59.316;18.092;2023-02-08T00:31:01;2.90;99.90
7427;DHT22;3755;59.316;18.092;2023-02-08T00:33:29;2.90;99.90
7427;DHT22;3755;59.316;18.092;2023-02-08T00:35:58;2.90;99.90
7427;DHT22;3755;59.316;18.092;2023-02-08T00:38:25;2.90;99.90
7427;DHT22;3755;59.316;18.092;2023-02-08T00:40:56;2.90;99.90
7427;DHT22;3755;59.316;18.092;2023-02-08T00:43:23;2.90;99.90
7427;DHT22;3755;59.316;18.092;2023-02-08T00:45:53;2.90;99.90
7427;DHT22;3755;59.316;18.092;2023-02-08T00:48:21;2.90;99.90
7427;DHT22;3755;59.316;18.092;2023-02-08T00:50:57;2.80;99.90
7427;DHT22;3755;59.316;18.092;2023-02-08T00:53:24;2.90;99.90
7427;DHT22;3755;59.316;18.092;2023-02-08T00:55:54;2.90;99.90
7427;DHT22;3755;59.316;18.092;2023-02-08T00:58:22;2.80;99.90
7427;DHT22;3755;59.316;18.092;2023-02-08T01:00:51;2.90;99.90
7427;DHT22;3755;59.316;18.092;2023-02-08T01:03:19;2.80;99.90
7427;DHT22;3755;59.316;18.092;2023-02-08T01:05:46;2.90;99.90
7427;DHT22;3755;59.316;18.092;2023-02-08T01:08:15;2.80;99.90
7427;DHT22;3755;59.316;18.092;2023-02-08T01:10:44;2.80;99.90
7427;DHT22;3755;59.316;18.092;2023-02-08T01:13:13;2.80;99.90
7427;DHT22;3755;59.316;18.092;2023-02-08T01:15:42;2.90;99.90
7427;DHT22;3755;59.316;18.092;2023-02-08T01:18:09;2.90;99.90
7427;DHT22;3755;59.316;18.092;2023-02-08T01:20:37;2.90;99.90
7427;DHT22;3755;59.316;18.092;2023-02-08T01:23:05;2.90;99.90
7427;DHT22;3755;59.316;18.092;2023-02-08T01:25:32;2.80;99.90
7427;DHT22;3755;59.316;18.092;2023-02-08T01:28:00;2.90;99.90
7427;DHT22;3755;59.316;18.092;2023-02-08T01:30:29;2.90;99.90
7427;DHT22;3755;59.316;18.092;2023-02-08T01:32:56;2.90;99.90
7427;DHT22;3755;59.316;18.092;2023-02-08T01:35:23;2.90;99.90
7427;DHT22;3755;59.316;18.092;2023-02-08T01:37:51;2.90;99.90
7427;DHT22;3755;59.316;18.092;2023-02-08T01:40:18;2.90;99.90
7427;DHT22;3755;59.316;18.092;2023-02-08T01:42:46;2.90;99.90
7427;DHT22;3755;59.316;18.092;2023-02-08T01:45:25;2.90;99.90
7427;DHT22;3755;59.316;18.092;2023-02-08T01:48:00;2.90;99.90
7427;DHT22;3755;59.316;18.092;2023-02-08T01:50:31;2.90;99.90
7427;DHT22;3755;59.316;18.092;2023-02-08T01:53:00;3.00;99.90
7427;DHT22;3755;59.316;18.092;2023-02-08T01:55:31;2.90;99.90
7427;DHT22;3755;59.316;18.092;2023-02-08T01:58:03;3.00;99.90
7427;DHT22;3755;59.316;18.092;2023-02-08T02:00:31;3.00;99.90
7427;DHT22;3755;59.316;18.092;2023-02-08T02:03:01;3.10;99.90
7427;DHT22;3755;59.316;18.092;2023-02-08T02:05:33;3.10;99.90
7427;DHT22;3755;59.316;18.092;2023-02-08T02:08:01;3.10;99.90
7427;DHT22;3755;59.316;18.092;2023-02-08T02:10:30;3.10;99.90
7427;DHT22;3755;59.316;18.092;2023-02-08T02:13:03;3.10;99.90
7427;DHT22;3755;59.316;18.092;2023-02-08T02:15:32;3.10;99.90
7427;DHT22;3755;59.316;18.092;2023-02-08T02:18:01;3.10;99.90
7427;DHT22;3755;59.316;18.092;2023-02-08T02:20:41;3.10;99.90
7427;DHT22;3755;59.316;18.092;2023-02-08T02:23:56;3.10;99.90
7427;DHT22;3755;59.316;18.092;2023-02-08T02:36:04;3.10;99.90
7427;DHT22;3755;59.316;18.092;2023-02-08T02:38:44;3.10;99.90
7427;DHT22;3755;59.316;18.092;2023-02-08T02:41:28;3.10;99.90
7427;DHT22;3755;59.316;18.092;2023-02-08T02:44:21;3.10;99.90
7427;DHT22;3755;59.316;18.092;2023-02-08T02:46:57;3.00;99.90
7427;DHT22;3755;59.316;18.092;2023-02-08T02:49:32;3.10;99.90
7427;DHT22;3755;59.316;18.092;2023-02-08T02:52:07;3.10;99.90
7427;DHT22;3755;59.316;18.092;2023-02-08T02:54:40;3.10;99.90
7427;DHT22;3755;59.316;18.092;2023-02-08T02:57:11;3.10;99.90
7427;DHT22;3755;59.316;18.092;2023-02-08T02:59:41;3.10;99.90
7427;DHT22;3755;59.316;18.092;2023-02-08T03:02:10;3.10;99.90
7427;DHT22;3755;59.316;18.092;2023-02-08T03:04:52;3.10;99.90
7427;DHT22;3755;59.316;18.092;2023-02-08T03:10:52;3.10;99.90
7427;DHT22;3755;59.316;18.092;2023-02-08T03:13:27;3.10;99.90
7427;DHT22;3755;59.316;18.092;2023-02-08T03:16:11;3.10;99.90
7427;DHT22;3755;59.316;18.092;2023-02-08T03:18:51;3.10;99.90
7427;DHT22;3755;59.316;18.092;2023-02-08T03:21:30;3.00;99.90
7427;DHT22;3755;59.316;18.092;2023-02-08T03:24:08;3.10;99.90
7427;DHT22;3755;59.316;18.092;2023-02-08T03:26:44;3.10;99.90
7427;DHT22;3755;59.316;18.092;2023-02-08T03:29:18;3.10;99.90
7427;DHT22;3755;59.316;18.092;2023-02-08T03:31:50;3.10;99.90
7427;DHT22;3755;59.316;18.092;2023-02-08T03:34:22;3.10;99.90
7427;DHT22;3755;59.316;18.092;2023-02-08T03:36:58;3.10;99.90
7427;DHT22;3755;59.316;18.092;2023-02-08T03:39:29;3.10;99.90
7427;DHT22;3755;59.316;18.092;2023-02-08T03:42:03;3.10;99.90
7427;DHT22;3755;59.316;18.092;2023-02-08T03:44:33;3.10;99.90
7427;DHT22;3755;59.316;18.092;2023-02-08T03:47:07;3.20;99.90
7427;DHT22;3755;59.316;18.092;2023-02-08T03:49:40;3.10;99.90
7427;DHT22;3755;59.316;18.092;2023-02-08T03:52:21;3.10;99.90
7427;DHT22;3755;59.316;18.092;2023-02-08T03:54:57;3.20;99.90
7427;DHT22;3755;59.316;18.092;2023-02-08T03:57:28;3.20;99.90
7427;DHT22;3755;59.316;18.092;2023-02-08T04:00:00;3.10;99.90
7427;DHT22;3755;59.316;18.092;2023-02-08T04:02:30;3.20;99.90
7427;DHT22;3755;59.316;18.092;2023-02-08T04:04:59;3.20;99.90
7427;DHT22;3755;59.316;18.092;2023-02-08T04:07:29;3.20;99.90
7427;DHT22;3755;59.316;18.092;2023-02-08T04:09:58;3.20;99.90
7427;DHT22;3755;59.316;18.092;2023-02-08T04:12:27;3.20;99.90
7427;DHT22;3755;59.316;18.092;2023-02-08T04:14:54;3.20;99.90
7427;DHT22;3755;59.316;18.092;2023-02-08T04:17:21;3.20;99.90
7427;DHT22;3755;59.316;18.092;2023-02-08T04:19:48;3.20;99.90
7427;DHT22;3755;59.316;18.092;2023-02-08T04:22:18;3.20;99.90
7427;DHT22;3755;59.316;18.092;2023-02-08T04:24:47;3.30;99.90
7427;DHT22;3755;59.316;18.092;2023-02-08T04:27:14;3.20;99.90
7427;DHT22;3755;59.316;18.092;2023-02-08T04:29:42;3.30;99.90
7427;DHT22;3755;59.316;18.092;2023-02-08T04:32:09;3.30;99.90
7427;DHT22;3755;59.316;18.092;2023-02-08T04:34:38;3.20;99.90
7427;DHT22;3755;59.316;18.092;2023-02-08T04:37:06;3.20;99.90
7427;DHT22;3755;59.316;18.092;2023-02-08T04:39:34;3.30;99.90
7427;DHT22;3755;59.316;18.092;2023-02-08T04:42:06;3.30;99.90
7427;DHT22;3755;59.316;18.092;2023-02-08T04:44:34;3.30;99.90
7427;DHT22;3755;59.316;18.092;2023-02-08T04:47:04;3.40;99.90
7427;DHT22;3755;59.316;18.092;2023-02-08T04:49:33;3.40;99.90
7427;DHT22;3755;59.316;18.092;2023-02-08T04:52:00;3.40;99.90
7427;DHT22;3755;59.316;18.092;2023-02-08T04:54:32;3.40;99.90
7427;DHT22;3755;59.316;18.092;2023-02-08T04:57:08;3.40;99.90
7427;DHT22;3755;59.316;18.092;2023-02-08T04:59:37;3.40;99.90
7427;DHT22;3755;59.316;18.092;2023-02-08T05:02:20;3.30;99.90
7427;DHT22;3755;59.316;18.092;2023-02-08T05:04:48;3.30;99.90
7427;DHT22;3755;59.316;18.092;2023-02-08T05:07:16;3.30;99.90
7427;DHT22;3755;59.316;18.092;2023-02-08T05:09:44;3.30;99.90
7427;DHT22;3755;59.316;18.092;2023-02-08T05:12:14;3.30;99.90
7427;DHT22;3755;59.316;18.092;2023-02-08T05:14:41;3.30;99.90
7427;DHT22;3755;59.316;18.092;2023-02-08T05:17:08;3.40;99.90
7427;DHT22;3755;59.316;18.092;2023-02-08T05:19:36;3.40;99.90
7427;DHT22;3755;59.316;18.092;2023-02-08T05:22:03;3.40;99.90
7427;DHT22;3755;59.316;18.092;2023-02-08T05:24:30;3.40;99.90
7427;DHT22;3755;59.316;18.092;2023-02-08T05:26:58;3.40;99.90
7427;DHT22;3755;59.316;18.092;2023-02-08T05:29:27;3.40;99.90
7427;DHT22;3755;59.316;18.092;2023-02-08T05:31:54;3.50;99.90
7427;DHT22;3755;59.316;18.092;2023-02-08T05:34:21;3.40;99.90
7427;DHT22;3755;59.316;18.092;2023-02-08T05:36:49;3.50;99.90
7427;DHT22;3755;59.316;18.092;2023-02-08T05:39:16;3.50;99.90
7427;DHT22;3755;59.316;18.092;2023-02-08T05:41:44;3.50;99.90
7427;DHT22;3755;59.316;18.092;2023-02-08T05:44:12;3.50;99.90
7427;DHT22;3755;59.316;18.092;2023-02-08T05:46:44;3.50;99.90
7427;DHT22;3755;59.316;18.092;2023-02-08T05:49:21;3.50;99.90
7427;DHT22;3755;59.316;18.092;2023-02-08T05:51:49;3.50;99.90
7427;DHT22;3755;59.316;18.092;2023-02-08T05:54:26;3.60;99.90
7427;DHT22;3755;59.316;18.092;2023-02-08T05:57:10;3.60;99.90
7427;DHT22;3755;59.316;18.092;2023-02-08T05:59:38;3.60;99.90
7427;DHT22;3755;59.316;18.092;2023-02-08T06:02:08;3.70;99.90
7427;DHT22;3755;59.316;18.092;2023-02-08T06:04:36;3.70;99.90
7427;DHT22;3755;59.316;18.092;2023-02-08T06:07:04;3.70;99.90
7427;DHT22;3755;59.316;18.092;2023-02-08T06:09:31;3.70;99.90
7427;DHT22;3755;59.316;18.092;2023-02-08T06:11:58;3.70;99.90
7427;DHT22;3755;59.316;18.092;2023-02-08T06:14:26;3.70;99.90
7427;DHT22;3755;59.316;18.092;2023-02-08T06:16:54;3.70;99.90
7427;DHT22;3755;59.316;18.092;2023-02-08T06:19:25;3.80;99.90
7427;DHT22;3755;59.316;18.092;2023-02-08T06:21:55;3.80;99.90
7427;DHT22;3755;59.316;18.092;2023-02-08T06:24:23;3.80;99.90
7427;DHT22;3755;59.316;18.092;2023-02-08T06:26:51;3.80;99.90
7427;DHT22;3755;59.316;18.092;2023-02-08T06:29:18;3.80;99.90
7427;DHT22;3755;59.316;18.092;2023-02-08T06:31:47;3.80;99.90
7427;DHT22;3755;59.316;18.092;2023-02-08T06:34:15;3.80;99.90
7427;DHT22;3755;59.316;18.092;2023-02-08T06:36:47;3.80;99.90
7427;DHT22;3755;59.316;18.092;2023-02-08T06:39:15;3.80;99.90
7427;DHT22;3755;59.316;18.092;2023-02-08T06:41:56;3.80;99.90
7427;DHT22;3755;59.316;18.092;2023-02-08T06:44:26;3.80;99.90
7427;DHT22;3755;59.316;18.092;2023-02-08T06:46:55;3.80;99.90
7427;DHT22;3755;59.316;18.092;2023-02-08T06:49:26;3.80;99.90
7427;DHT22;3755;59.316;18.092;2023-02-08T06:51:58;3.80;99.90
7427;DHT22;3755;59.316;18.092;2023-02-08T06:54:31;3.80;99.90
7427;DHT22;3755;59.316;18.092;2023-02-08T06:57:00;3.90;99.90
7427;DHT22;3755;59.316;18.092;2023-02-08T06:59:33;3.90;99.90
7427;DHT22;3755;59.316;18.092;2023-02-08T07:02:02;3.90;99.90
7427;DHT22;3755;59.316;18.092;2023-02-08T07:04:29;3.90;99.90
7427;DHT22;3755;59.316;18.092;2023-02-08T07:06:59;3.90;99.90
7427;DHT22;3755;59.316;18.092;2023-02-08T07:09:26;3.90;99.90
7427;DHT22;3755;59.316;18.092;2023-02-08T07:11:54;3.90;99.90
7427;DHT22;3755;59.316;18.092;2023-02-08T07:14:37;4.00;99.90
7427;DHT22;3755;59.316;18.092;2023-02-08T07:17:06;4.00;99.90
7427;DHT22;3755;59.316;18.092;2023-02-08T07:19:36;4.00;99.90
7427;DHT22;3755;59.316;18.092;2023-02-08T07:22:08;4.00;99.90
7427;DHT22;3755;59.316;18.092;2023-02-08T07:24:38;4.00;99.90
7427;DHT22;3755;59.316;18.092;2023-02-08T07:27:07;3.90;99.90
7427;DHT22;3755;59.316;18.092;2023-02-08T07:29:37;4.00;99.90
7427;DHT22;3755;59.316;18.092;2023-02-08T07:32:06;4.10;99.90
7427;DHT22;3755;59.316;18.092;2023-02-08T07:34:36;4.20;99.90
7427;DHT22;3755;59.316;18.092;2023-02-08T07:37:21;4.20;99.90
7427;DHT22;3755;59.316;18.092;2023-02-08T07:39:53;4.20;99.90
7427;DHT22;3755;59.316;18.092;2023-02-08T07:42:30;4.30;99.90
7427;DHT22;3755;59.316;18.092;2023-02-08T07:44:58;4.30;99.90
7427;DHT22;3755;59.316;18.092;2023-02-08T07:47:29;4.30;99.90
7427;DHT22;3755;59.316;18.092;2023-02-08T07:50:00;4.40;99.90
7427;DHT22;3755;59.316;18.092;2023-02-08T07:52:30;4.40;99.90
7427;DHT22;3755;59.316;18.092;2023-02-08T07:55:01;4.40;99.90
7427;DHT22;3755;59.316;18.092;2023-02-08T07:57:28;4.40;99.90
7427;DHT22;3755;59.316;18.092;2023-02-08T07:59:56;4.40;99.90
7427;DHT22;3755;59.316;18.092;2023-02-08T08:02:24;4.50;99.90
7427;DHT22;3755;59.316;18.092;2023-02-08T08:04:52;4.50;99.90
7427;DHT22;3755;59.316;18.092;2023-02-08T08:07:19;4.50;99.90
7427;DHT22;3755;59.316;18.092;2023-02-08T08:09:49;4.50;99.90
7427;DHT22;3755;59.316;18.092;2023-02-08T08:12:17;4.50;99.90
7427;DHT22;3755;59.316;18.092;2023-02-08T08:14:45;4.60;99.90
7427;DHT22;3755;59.316;18.092;2023-02-08T08:17:12;4.60;99.90
7427;DHT22;3755;59.316;18.092;2023-02-08T08:20:01;4.70;99.90
7427;DHT22;3755;59.316;18.092;2023-02-08T08:22:30;4.70;99.90
7427;DHT22;3755;59.316;18.092;2023-02-08T08:25:00;4.80;99.90
7427;DHT22;3755;59.316;18.092;2023-02-08T08:27:42;4.80;99.90
7427;DHT22;3755;59.316;18.092;2023-02-08T08:30:14;4.90;99.90
7427;DHT22;3755;59.316;18.092;2023-02-08T08:32:47;5.00;99.90
7427;DHT22;3755;59.316;18.092;2023-02-08T08:35:31;5.10;99.90
7427;DHT22;3755;59.316;18.092;2023-02-08T08:38:12;5.00;99.90
7427;DHT22;3755;59.316;18.092;2023-02-08T08:40:42;4.90;99.90
7427;DHT22;3755;59.316;18.092;2023-02-08T08:43:16;5.00;99.90
7427;DHT22;3755;59.316;18.092;2023-02-08T08:46:07;5.00;99.90
7427;DHT22;3755;59.316;18.092;2023-02-08T08:48:49;5.00;99.90
7427;DHT22;3755;59.316;18.092;2023-02-08T08:51:21;4.90;99.90
7427;DHT22;3755;59.316;18.092;2023-02-08T08:53:49;4.80;99.90
7427;DHT22;3755;59.316;18.092;2023-02-08T08:56:20;4.90;99.90
7427;DHT22;3755;59.316;18.092;2023-02-08T08:59:01;4.90;99.90
7427;DHT22;3755;59.316;18.092;2023-02-08T09:01:36;4.90;99.90
7427;DHT22;3755;59.316;18.092;2023-02-08T09:04:07;4.90;99.90
7427;DHT22;3755;59.316;18.092;2023-02-08T09:06:36;4.90;99.90
7427;DHT22;3755;59.316;18.092;2023-02-08T09:09:06;4.90;99.90
7427;DHT22;3755;59.316;18.092;2023-02-08T09:11:36;4.90;99.90
7427;DHT22;3755;59.316;18.092;2023-02-08T09:14:17;5.00;99.90
7427;DHT22;3755;59.316;18.092;2023-02-08T09:16:46;5.10;99.90
7427;DHT22;3755;59.316;18.092;2023-02-08T09:19:15;5.10;99.90
7427;DHT22;3755;59.316;18.092;2023-02-08T09:21:43;5.00;99.90
7427;DHT22;3755;59.316;18.092;2023-02-08T09:24:20;5.00;99.90
7427;DHT22;3755;59.316;18.092;2023-02-08T09:26:51;5.00;99.90
7427;DHT22;3755;59.316;18.092;2023-02-08T09:29:19;5.10;99.90
7427;DHT22;3755;59.316;18.092;2023-02-08T09:31:47;5.10;99.90
7427;DHT22;3755;59.316;18.092;2023-02-08T09:34:14;5.10;99.90
7427;DHT22;3755;59.316;18.092;2023-02-08T09:36:42;5.10;99.90
7427;DHT22;3755;59.316;18.092;2023-02-08T09:39:13;5.20;99.90
7427;DHT22;3755;59.316;18.092;2023-02-08T09:45:10;5.40;99.90
7427;DHT22;3755;59.316;18.092;2023-02-08T09:48:15;5.20;99.90
7427;DHT22;3755;59.316;18.092;2023-02-08T09:50:49;5.20;99.90
7427;DHT22;3755;59.316;18.092;2023-02-08T09:53:40;5.20;99.90
7427;DHT22;3755;59.316;18.092;2023-02-08T09:56:11;5.30;99.90
7427;DHT22;3755;59.316;18.092;2023-02-08T09:58:51;5.30;99.90
7427;DHT22;3755;59.316;18.092;2023-02-08T10:01:25;5.40;99.90
7427;DHT22;3755;59.316;18.092;2023-02-08T10:04:01;5.40;99.90
7427;DHT22;3755;59.316;18.092;2023-02-08T10:06:42;5.50;99.90
7427;DHT22;3755;59.316;18.092;2023-02-08T10:09:12;5.40;99.90
7427;DHT22;3755;59.316;18.092;2023-02-08T10:11:48;5.40;99.90
7427;DHT22;3755;59.316;18.092;2023-02-08T10:18:00;5.40;99.90
7427;DHT22;3755;59.316;18.092;2023-02-08T10:21:10;5.30;99.90
7427;DHT22;3755;59.316;18.092;2023-02-08T10:23:56;5.30;99.90
7427;DHT22;3755;59.316;18.092;2023-02-08T10:26:41;5.30;99.90
7427;DHT22;3755;59.316;18.092;2023-02-08T10:32:34;5.20;99.90
7427;DHT22;3755;59.316;18.092;2023-02-08T10:35:10;5.20;99.90
7427;DHT22;3755;59.316;18.092;2023-02-08T10:37:42;5.30;99.90
7427;DHT22;3755;59.316;18.092;2023-02-08T10:40:28;5.30;99.90
7427;DHT22;3755;59.316;18.092;2023-02-08T10:43:08;5.30;99.90
7427;DHT22;3755;59.316;18.092;2023-02-08T10:45:48;5.50;99.90
7427;DHT22;3755;59.316;18.092;2023-02-08T10:48:51;5.50;99.90
7427;DHT22;3755;59.316;18.092;2023-02-08T10:51:33;5.60;99.90
7427;DHT22;3755;59.316;18.092;2023-02-08T10:54:17;5.40;99.90
7427;DHT22;3755;59.316;18.092;2023-02-08T10:57:00;5.60;99.90
7427;DHT22;3755;59.316;18.092;2023-02-08T10:59:47;5.70;99.90
7427;DHT22;3755;59.316;18.092;2023-02-08T11:02:31;5.80;99.90
7427;DHT22;3755;59.316;18.092;2023-02-08T11:05:14;5.80;99.90
7427;DHT22;3755;59.316;18.092;2023-02-08T11:08:04;5.90;99.90
7427;DHT22;3755;59.316;18.092;2023-02-08T11:10:56;5.90;99.90
7427;DHT22;3755;59.316;18.092;2023-02-08T11:13:30;6.00;99.90
7427;DHT22;3755;59.316;18.092;2023-02-08T11:16:02;6.00;99.90
7427;DHT22;3755;59.316;18.092;2023-02-08T11:18:33;6.00;99.90
7427;DHT22;3755;59.316;18.092;2023-02-08T11:21:05;5.90;99.90
7427;DHT22;3755;59.316;18.092;2023-02-08T11:23:49;5.90;99.90
7427;DHT22;3755;59.316;18.092;2023-02-08T11:26:21;6.00;99.90
7427;DHT22;3755;59.316;18.092;2023-02-08T11:28:59;5.90;99.90
7427;DHT22;3755;59.316;18.092;2023-02-08T11:31:57;5.90;99.90
7427;DHT22;3755;59.316;18.092;2023-02-08T11:34:47;6.00;99.90
7427;DHT22;3755;59.316;18.092;2023-02-08T11:37:17;5.90;99.90
7427;DHT22;3755;59.316;18.092;2023-02-08T11:39:51;5.90;99.90
7427;DHT22;3755;59.316;18.092;2023-02-08T11:42:24;5.90;99.90
7427;DHT22;3755;59.316;18.092;2023-02-08T11:44:56;6.00;99.90
7427;DHT22;3755;59.316;18.092;2023-02-08T11:47:29;6.00;99.90
7427;DHT22;3755;59.316;18.092;2023-02-08T11:50:23;6.00;99.90
7427;DHT22;3755;59.316;18.092;2023-02-08T11:52:56;6.10;99.90
7427;DHT22;3755;59.316;18.092;2023-02-08T11:55:29;6.00;99.90
7427;DHT22;3755;59.316;18.092;2023-02-08T11:58:38;6.00;99.90
7427;DHT22;3755;59.316;18.092;2023-02-08T12:01:35;5.90;99.90
7427;DHT22;3755;59.316;18.092;2023-02-08T12:04:07;5.90;99.90
7427;DHT22;3755;59.316;18.092;2023-02-08T12:09:41;5.80;99.90
7427;DHT22;3755;59.316;18.092;2023-02-08T12:15:57;5.90;99.90
7427;DHT22;3755;59.316;18.092;2023-02-08T12:19:01;5.90;99.90
7427;DHT22;3755;59.316;18.092;2023-02-08T12:22:02;5.90;99.90
7427;DHT22;3755;59.316;18.092;2023-02-08T12:25:27;5.90;99.90
7427;DHT22;3755;59.316;18.092;2023-02-08T12:28:18;5.80;99.90
7427;DHT22;3755;59.316;18.092;2023-02-08T12:31:21;5.90;99.90
7427;DHT22;3755;59.316;18.092;2023-02-08T12:34:12;5.90;99.90
7427;DHT22;3755;59.316;18.092;2023-02-08T12:37:09;5.90;99.90
7427;DHT22;3755;59.316;18.092;2023-02-08T12:40:09;6.00;99.90
7427;DHT22;3755;59.316;18.092;2023-02-08T12:43:07;6.10;99.90
7427;DHT22;3755;59.316;18.092;2023-02-08T12:46:01;6.10;99.90
7427;DHT22;3755;59.316;18.092;2023-02-08T12:49:12;6.00;99.90
7427;DHT22;3755;59.316;18.092;2023-02-08T12:51:51;6.10;99.90
7427;DHT22;3755;59.316;18.092;2023-02-08T12:54:31;5.90;99.90
7427;DHT22;3755;59.316;18.092;2023-02-08T12:57:08;5.90;99.90
7427;DHT22;3755;59.316;18.092;2023-02-08T12:59:43;5.90;99.90
7427;DHT22;3755;59.316;18.092;2023-02-08T13:02:25;6.00;99.90
7427;DHT22;3755;59.316;18.092;2023-02-08T13:05:07;6.00;99.90
7427;DHT22;3755;59.316;18.092;2023-02-08T13:08:01;6.00;99.90
7427;DHT22;3755;59.316;18.092;2023-02-08T13:10:52;6.00;99.90
7427;DHT22;3755;59.316;18.092;2023-02-08T13:13:41;6.10;99.90
7427;DHT22;3755;59.316;18.092;2023-02-08T13:16:33;6.00;99.90
7427;DHT22;3755;59.316;18.092;2023-02-08T13:19:50;5.90;99.90
7427;DHT22;3755;59.316;18.092;2023-02-08T13:22:58;5.90;99.90
7427;DHT22;3755;59.316;18.092;2023-02-08T13:25:45;5.90;99.90
7427;DHT22;3755;59.316;18.092;2023-02-08T13:28:34;6.00;99.90
7427;DHT22;3755;59.316;18.092;2023-02-08T13:31:19;5.90;99.90
7427;DHT22;3755;59.316;18.092;2023-02-08T13:33:58;5.90;99.90
7427;DHT22;3755;59.316;18.092;2023-02-08T13:36:56;5.90;99.90
7427;DHT22;3755;59.316;18.092;2023-02-08T13:43:21;5.90;99.90
7427;DHT22;3755;59.316;18.092;2023-02-08T13:46:08;5.90;99.90
7427;DHT22;3755;59.316;18.092;2023-02-08T13:48:57;5.90;99.90
7427;DHT22;3755;59.316;18.092;2023-02-08T13:51:55;6.00;99.90
7427;DHT22;3755;59.316;18.092;2023-02-08T13:54:30;5.90;99.90
7427;DHT22;3755;59.316;18.092;2023-02-08T13:57:50;5.90;99.90
7427;DHT22;3755;59.316;18.092;2023-02-08T14:10:39;6.00;99.90
7427;DHT22;3755;59.316;18.092;2023-02-08T14:13:27;6.00;99.90
7427;DHT22;3755;59.316;18.092;2023-02-08T14:22:32;5.90;99.90
7427;DHT22;3755;59.316;18.092;2023-02-08T14:25:21;5.90;99.90
7427;DHT22;3755;59.316;18.092;2023-02-08T14:28:02;5.90;99.90
7427;DHT22;3755;59.316;18.092;2023-02-08T14:30:37;5.90;99.90
7427;DHT22;3755;59.316;18.092;2023-02-08T14:33:22;5.90;99.90
7427;DHT22;3755;59.316;18.092;2023-02-08T14:36:31;6.00;99.90
7427;DHT22;3755;59.316;18.092;2023-02-08T14:42:58;5.90;99.90
7427;DHT22;3755;59.316;18.092;2023-02-08T14:45:41;5.90;99.90
7427;DHT22;3755;59.316;18.092;2023-02-08T14:48:37;5.90;99.90
7427;DHT22;3755;59.316;18.092;2023-02-08T14:51:42;5.80;99.90
7427;DHT22;3755;59.316;18.092;2023-02-08T14:54:20;5.80;99.90
7427;DHT22;3755;59.316;18.092;2023-02-08T14:57:24;5.70;99.90
7427;DHT22;3755;59.316;18.092;2023-02-08T15:00:18;5.70;99.90
7427;DHT22;3755;59.316;18.092;2023-02-08T15:02:48;5.80;99.90
7427;DHT22;3755;59.316;18.092;2023-02-08T15:05:21;5.70;99.90
7427;DHT22;3755;59.316;18.092;2023-02-08T15:08:04;5.80;99.90
7427;DHT22;3755;59.316;18.092;2023-02-08T15:10:35;5.70;99.90
7427;DHT22;3755;59.316;18.092;2023-02-08T15:13:21;5.70;99.90
7427;DHT22;3755;59.316;18.092;2023-02-08T15:16:01;5.70;99.90
7427;DHT22;3755;59.316;18.092;2023-02-08T15:18:31;5.70;99.90
7427;DHT22;3755;59.316;18.092;2023-02-08T15:21:02;5.60;99.90
7427;DHT22;3755;59.316;18.092;2023-02-08T15:23:31;5.50;99.90
7427;DHT22;3755;59.316;18.092;2023-02-08T15:26:04;5.50;99.90
7427;DHT22;3755;59.316;18.092;2023-02-08T15:28:43;5.40;99.90
7427;DHT22;3755;59.316;18.092;2023-02-08T15:31:32;5.40;99.90
7427;DHT22;3755;59.316;18.092;2023-02-08T15:34:15;5.30;99.90
7427;DHT22;3755;59.316;18.092;2023-02-08T15:36:52;5.20;99.90
7427;DHT22;3755;59.316;18.092;2023-02-08T15:39:36;5.20;99.90
7427;DHT22;3755;59.316;18.092;2023-02-08T15:42:18;5.20;99.90
7427;DHT22;3755;59.316;18.092;2023-02-08T15:45:22;5.10;99.90
7427;DHT22;3755;59.316;18.092;2023-02-08T15:48:11;5.10;99.90
7427;DHT22;3755;59.316;18.092;2023-02-08T15:50:41;5.00;99.90
7427;DHT22;3755;59.316;18.092;2023-02-08T15:53:19;5.00;99.90
7427;DHT22;3755;59.316;18.092;2023-02-08T15:55:56;5.00;99.90
7427;DHT22;3755;59.316;18.092;2023-02-08T15:58:30;5.00;99.90
7427;DHT22;3755;59.316;18.092;2023-02-08T16:01:01;5.00;99.90
7427;DHT22;3755;59.316;18.092;2023-02-08T16:03:31;5.00;99.90
7427;DHT22;3755;59.316;18.092;2023-02-08T16:06:06;5.00;99.90
7427;DHT22;3755;59.316;18.092;2023-02-08T16:08:51;5.00;99.90
7427;DHT22;3755;59.316;18.092;2023-02-08T16:11:26;5.00;99.90
7427;DHT22;3755;59.316;18.092;2023-02-08T16:13:59;4.90;99.90
7427;DHT22;3755;59.316;18.092;2023-02-08T16:16:42;4.90;99.90
7427;DHT22;3755;59.316;18.092;2023-02-08T16:19:28;4.80;99.90
7427;DHT22;3755;59.316;18.092;2023-02-08T16:22:27;4.80;99.90
7427;DHT22;3755;59.316;18.092;2023-02-08T16:25:36;4.80;99.90
7427;DHT22;3755;59.316;18.092;2023-02-08T16:31:18;4.80;99.90
7427;DHT22;3755;59.316;18.092;2023-02-08T16:34:04;4.80;99.90
7427;DHT22;3755;59.316;18.092;2023-02-08T16:36:42;4.80;99.90
7427;DHT22;3755;59.316;18.092;2023-02-08T16:39:51;4.80;99.90
7427;DHT22;3755;59.316;18.092;2023-02-08T16:42:30;4.70;99.90
7427;DHT22;3755;59.316;18.092;2023-02-08T16:45:12;4.70;99.90
7427;DHT22;3755;59.316;18.092;2023-02-08T16:47:50;4.80;99.90
7427;DHT22;3755;59.316;18.092;2023-02-08T16:50:22;4.70;99.90
7427;DHT22;3755;59.316;18.092;2023-02-08T16:53:03;4.80;99.90
7427;DHT22;3755;59.316;18.092;2023-02-08T16:55:42;4.80;99.90
7427;DHT22;3755;59.316;18.092;2023-02-08T16:58:14;4.80;99.90
7427;DHT22;3755;59.316;18.092;2023-02-08T17:00:55;4.80;99.90
7427;DHT22;3755;59.316;18.092;2023-02-08T17:03:32;4.80;99.90
7427;DHT22;3755;59.316;18.092;2023-02-08T17:06:22;4.80;99.90
7427;DHT22;3755;59.316;18.092;2023-02-08T17:09:05;4.80;99.90
7427;DHT22;3755;59.316;18.092;2023-02-08T17:11:46;4.80;99.90
7427;DHT22;3755;59.316;18.092;2023-02-08T17:14:15;4.80;99.90
7427;DHT22;3755;59.316;18.092;2023-02-08T17:16:48;4.80;99.90
7427;DHT22;3755;59.316;18.092;2023-02-08T17:19:22;4.80;99.90
7427;DHT22;3755;59.316;18.092;2023-02-08T17:21:51;4.80;99.90
7427;DHT22;3755;59.316;18.092;2023-02-08T17:24:22;4.80;99.90
7427;DHT22;3755;59.316;18.092;2023-02-08T17:26:50;4.70;99.90
7427;DHT22;3755;59.316;18.092;2023-02-08T17:29:19;4.70;99.90
7427;DHT22;3755;59.316;18.092;2023-02-08T17:31:48;4.70;99.90
7427;DHT22;3755;59.316;18.092;2023-02-08T17:34:16;4.70;99.90
7427;DHT22;3755;59.316;18.092;2023-02-08T17:36:44;4.80;99.90
7427;DHT22;3755;59.316;18.092;2023-02-08T17:39:12;4.70;99.90
7427;DHT22;3755;59.316;18.092;2023-02-08T17:41:44;4.70;99.90
7427;DHT22;3755;59.316;18.092;2023-02-08T17:44:16;4.70;99.90
7427;DHT22;3755;59.316;18.092;2023-02-08T17:46:57;4.70;99.90
7427;DHT22;3755;59.316;18.092;2023-02-08T17:49:25;4.70;99.90
7427;DHT22;3755;59.316;18.092;2023-02-08T17:51:59;4.70;99.90
7427;DHT22;3755;59.316;18.092;2023-02-08T17:54:28;4.70;99.90
7427;DHT22;3755;59.316;18.092;2023-02-08T17:57:03;4.60;99.90